Time;durP1;ratioP1;P1;durP2;ratioP2;P2;SDS_P1;SDS_P2;PMS_P1;PMS_P2;Temp;Humidity;BMP_temperature;BMP_pressure;BME280_temperature;BME280_humidity;BME280_pressure;Samples;Min_cycle;Max_cycle;Signal;HPM_P1;HPM_P2
2022/08/21 00:00:51;;;;;;;10.98;2.55;;;15.10;99.90;;;;;;6096992;23;20025;-96
2022/08/21 00:03:34;;;;;;;7.55;2.42;;;15.00;99.90;;;;;;6030664;23;20014;-96
2022/08/21 00:06:06;;;;;;;6.15;2.38;;;15.00;99.90;;;;;;6095297;23;20022;-96
2022/08/21 00:08:53;;;;;;;8.73;2.70;;;15.00;99.90;;;;;;6096325;23;20444;-96
2022/08/21 00:11:45;;;;;;;8.90;2.70;;;15.00;99.90;;;;;;6075426;23;20379;-96
2022/08/21 00:14:25;;;;;;;10.23;2.92;;;14.90;99.90;;;;;;6067762;23;20451;-96
2022/08/21 00:17:06;;;;;;;9.38;2.67;;;14.90;99.90;;;;;;6095868;23;20088;-96
2022/08/21 00:20:12;;;;;;;7.68;2.83;;;14.80;99.90;;;;;;6120580;23;20451;-96
2022/08/21 00:23:21;;;;;;;6.65;1.98;;;14.90;99.90;;;;;;6121407;23;20022;-95
2022/08/21 00:26:08;;;;;;;7.55;2.10;;;14.80;99.90;;;;;;6122237;23;20029;-95
2022/08/21 00:29:10;;;;;;;;;;;;;;;;;;;;;
2022/08/21 00:32:27;;;;;;;7.45;3.00;;;14.80;99.90;;;;;;6078908;23;20088;-96
2022/08/21 00:35:06;;;;;;;11.65;3.13;;;14.90;99.90;;;;;;6097058;23;20371;-96
2022/08/21 00:37:59;;;;;;;8.27;2.67;;;14.70;99.90;;;;;;6096012;23;20459;-95
2022/08/21 00:41:03;;;;;;;4.97;1.77;;;14.50;99.90;;;;;;6019884;23;20053;-95
2022/08/21 00:43:54;;;;;;;6.07;2.53;;;14.50;99.90;;;;;;6101310;23;20018;-95
2022/08/21 00:46:58;;;;;;;;;;;;;;;;;;;;;
2022/08/21 00:49:45;;;;;;;6.30;2.65;;;14.40;99.90;;;;;;6120795;23;20459;-95
2022/08/21 00:53:22;;;;;;;6.18;2.47;;;14.40;99.90;;;;;;6093469;23;20026;-96
2022/08/21 00:56:03;;;;;;;7.10;2.70;;;14.30;99.90;;;;;;5979217;23;20149;-96
2022/08/21 00:58:55;;;;;;;10.13;2.75;;;14.10;99.90;;;;;;6043802;23;20054;-96
2022/08/21 01:02:20;;;;;;;9.25;2.88;;;14.20;99.90;;;;;;6042141;23;20051;-96
2022/08/21 01:05:11;;;;;;;;;;;;;;;;;;;;;
2022/08/21 01:07:48;;;;;;;6.82;2.72;;;14.10;99.90;;;;;;6067184;23;20060;-96
2022/08/21 01:10:44;;;;;;;7.65;2.90;;;14.10;99.90;;;;;;6048893;23;20033;-96
2022/08/21 01:13:34;;;;;;;10.27;3.35;;;14.10;99.90;;;;;;6045753;23;20015;-95
2022/08/21 01:16:32;;;;;;;8.05;2.75;;;14.10;99.90;;;;;;6066822;23;20023;-96
2022/08/21 01:19:01;;;;;;;7.00;2.50;;;14.10;99.90;;;;;;6044702;23;20049;-96
2022/08/21 01:21:51;;;;;;;7.38;2.95;;;14.00;99.90;;;;;;6045636;23;20614;-96
2022/08/21 01:24:47;;;;;;;8.57;2.85;;;14.00;99.90;;;;;;6046389;23;20476;-96
2022/08/21 01:27:24;;;;;;;6.05;2.55;;;14.00;99.90;;;;;;6044814;23;20484;-96
2022/08/21 01:30:28;;;;;;;8.10;2.70;;;14.00;99.90;;;;;;6044602;23;20029;-96
2022/08/21 01:33:18;;;;;;;8.05;3.45;;;14.00;99.90;;;;;;6062057;23;20022;-96
2022/08/21 01:35:56;;;;;;;8.40;2.70;;;13.90;99.90;;;;;;6043477;23;20101;-96
2022/08/21 01:39:20;;;;;;;9.75;3.50;;;14.00;99.90;;;;;;6073173;23;20026;-96
2022/08/21 01:41:49;;;;;;;9.13;2.90;;;14.00;99.90;;;;;;6045304;23;20081;-96
2022/08/21 01:44:56;;;;;;;10.20;3.35;;;14.00;99.90;;;;;;6042278;23;20018;-96
2022/08/21 01:47:46;;;;;;;;;;;;;;;;;;;;;
2022/08/21 01:50:25;;;;;;;12.73;4.00;;;14.00;99.90;;;;;;6069876;23;20097;-96
2022/08/21 01:53:15;;;;;;;;;;;14.10;99.90;;;;;;6049386;23;20026;-96
2022/08/21 01:56:12;;;;;;;15.02;3.70;;;14.10;99.90;;;;;;6008680;23;19917;-96
2022/08/21 01:58:48;;;;;;;17.10;3.80;;;14.10;99.90;;;;;;6072824;23;20105;-96
2022/08/21 02:01:40;;;;;;;11.13;3.60;;;14.00;99.90;;;;;;6074307;23;20017;-96
2022/08/21 02:04:22;;;;;;;9.23;3.17;;;14.10;99.90;;;;;;6022809;23;20073;-96
2022/08/21 02:07:11;;;;;;;9.25;3.60;;;14.00;99.90;;;;;;6075166;23;20021;-96
2022/08/21 02:10:00;;;;;;;13.23;3.67;;;14.00;99.90;;;;;;6091523;23;20030;-95
2022/08/21 02:12:52;;;;;;;9.90;3.55;;;14.00;99.90;;;;;;6071892;23;20076;-96
2022/08/21 02:15:38;;;;;;;11.55;3.88;;;14.00;99.90;;;;;;6072739;23;20053;-96
2022/08/21 02:18:11;;;;;;;9.25;3.75;;;14.00;99.90;;;;;;6044788;23;20029;-95
2022/08/21 02:21:31;;;;;;;7.80;3.53;;;14.00;99.90;;;;;;6066106;23;20018;-94
2022/08/21 02:24:04;;;;;;;11.30;3.40;;;13.90;99.90;;;;;;6024992;23;20032;-95
2022/08/21 02:27:18;;;;;;;9.70;4.03;;;13.80;99.90;;;;;;6072306;23;20085;-94
2022/08/21 02:29:36;;;;;;;13.55;3.55;;;13.80;99.90;;;;;;6084273;23;20030;-96
2022/08/21 02:32:32;;;;;;;13.45;3.80;;;13.70;99.90;;;;;;6073505;23;20510;-96
2022/08/21 02:38:10;;;;;;;8.98;3.70;;;13.70;99.90;;;;;;6035097;23;20097;-96
2022/08/21 02:41:15;;;;;;;12.40;3.67;;;13.60;99.90;;;;;;6072708;23;20028;-96
2022/08/21 02:54:29;;;;;;;11.63;3.97;;;13.90;99.90;;;;;;6055301;23;20021;-96
2022/08/21 02:57:19;;;;;;;;;;;;;;;;;;;;;
2022/08/21 03:00:38;;;;;;;9.95;3.58;;;13.40;99.90;;;;;;6122901;23;20124;-96
2022/08/21 03:03:15;;;;;;;13.02;4.53;;;13.40;99.90;;;;;;6072770;23;20022;-96
2022/08/21 03:06:14;;;;;;;;;;;;;;;;;;;;;
2022/08/21 03:12:08;;;;;;;12.75;5.30;;;13.70;99.90;;;;;;6021501;23;20078;-96
2022/08/21 03:15:23;;;;;;;18.95;6.45;;;13.60;99.90;;;;;;6073176;23;20101;-96
2022/08/21 03:19:02;;;;;;;;;;;;;;;;;;;;;
2022/08/21 03:21:42;;;;;;;13.93;5.63;;;13.80;99.90;;;;;;6019874;23;20018;-96
2022/08/21 03:24:34;;;;;;;9.55;6.32;;;13.80;99.90;;;;;;6072761;23;20018;-96
2022/08/21 03:27:15;;;;;;;15.02;6.25;;;13.80;99.90;;;;;;6073533;23;20026;-96
2022/08/21 03:33:55;;;;;;;10.60;5.05;;;13.80;99.90;;;;;;5979256;23;20030;-96
2022/08/21 03:36:53;;;;;;;9.82;4.97;;;13.80;99.90;;;;;;6074439;23;20022;-96
2022/08/21 03:42:56;;;;;;;15.23;5.85;;;13.80;99.90;;;;;;6048404;23;20038;-96
2022/08/21 03:45:28;;;;;;;11.40;5.93;;;13.70;99.90;;;;;;6074489;23;20457;-96
2022/08/21 03:52:39;;;;;;;16.33;5.63;;;13.70;99.90;;;;;;6067736;23;20033;-96
2022/08/21 03:58:19;;;;;;;12.55;6.53;;;13.80;99.90;;;;;;6092211;23;19927;-96
2022/08/21 04:01:12;;;;;;;17.10;6.72;;;13.60;99.90;;;;;;6072848;23;20029;-96
2022/08/21 04:04:28;;;;;;;14.00;6.47;;;13.80;99.90;;;;;;6058370;23;20025;-96
2022/08/21 04:07:03;;;;;;;17.85;6.72;;;13.80;99.90;;;;;;5957986;23;20017;-96
2022/08/21 04:09:38;;;;;;;14.60;6.47;;;13.80;99.90;;;;;;6075675;23;20014;-96
2022/08/21 04:12:23;;;;;;;14.85;6.53;;;13.90;99.90;;;;;;6098533;23;20037;-96
2022/08/21 04:15:43;;;;;;;;;;;;;;;;;;;;;
2022/08/21 04:18:30;;;;;;;13.88;6.60;;;13.90;99.90;;;;;;6097518;23;20022;-96
2022/08/21 04:21:30;;;;;;;;;;;;;;;;;;;;;
2022/08/21 04:24:15;;;;;;;14.32;6.43;;;13.90;99.90;;;;;;6096586;23;20017;-96
2022/08/21 04:29:48;;;;;;;11.23;6.38;;;13.90;99.90;;;;;;6048262;23;20029;-96
2022/08/21 04:32:32;;;;;;;12.30;6.50;;;13.90;99.90;;;;;;6099568;23;20022;-95
2022/08/21 04:35:25;;;;;;;15.88;6.45;;;13.80;99.90;;;;;;6073267;23;20334;-96
2022/08/21 04:38:01;;;;;;;12.98;6.30;;;13.90;99.90;;;;;;6048078;23;20022;-96
2022/08/21 04:40:39;;;;;;;14.70;5.97;;;13.90;99.90;;;;;;6070553;23;20018;-96
2022/08/21 04:43:12;;;;;;;15.18;6.40;;;13.90;99.90;;;;;;6072491;23;20355;-96
2022/08/21 04:46:25;;;;;;;12.05;6.28;;;13.90;99.90;;;;;;6101356;23;20061;-96
2022/08/21 04:49:17;;;;;;;15.00;7.30;;;14.00;99.90;;;;;;5953096;23;20025;-96
2022/08/21 04:52:11;;;;;;;13.30;6.13;;;13.90;99.90;;;;;;6069883;23;20054;-96
2022/08/21 04:55:00;;;;;;;14.82;6.28;;;14.00;99.90;;;;;;5947946;23;20026;-96
2022/08/21 04:57:26;;;;;;;11.70;5.72;;;13.80;99.90;;;;;;5976973;23;20026;-85
2022/08/21 04:59:52;;;;;;;15.95;6.03;;;14.00;99.90;;;;;;6035333;23;20023;-84
2022/08/21 05:02:18;;;;;;;16.83;6.13;;;14.00;99.90;;;;;;6034471;23;20495;-84
2022/08/21 05:04:50;;;;;;;13.52;6.13;;;14.10;99.90;;;;;;6035757;23;20046;-84
2022/08/21 05:07:25;;;;;;;12.27;6.00;;;14.10;99.90;;;;;;6034234;23;20011;-85
2022/08/21 05:09:51;;;;;;;14.18;5.78;;;14.20;99.90;;;;;;6060035;23;20345;-84
2022/08/21 05:12:17;;;;;;;14.45;5.88;;;14.20;99.90;;;;;;6058478;23;20082;-84
2022/08/21 05:14:43;;;;;;;12.70;5.20;;;14.30;99.90;;;;;;6035338;23;20019;-84
2022/08/21 05:17:09;;;;;;;27.08;6.93;;;14.30;99.90;;;;;;6034247;23;20098;-84
2022/08/21 05:19:35;;;;;;;16.98;5.70;;;14.30;99.90;;;;;;6059996;23;20054;-83
2022/08/21 05:22:01;;;;;;;12.52;5.38;;;14.40;99.90;;;;;;6034971;23;20050;-83
2022/08/21 05:24:28;;;;;;;15.93;5.57;;;14.40;99.90;;;;;;6059117;23;20038;-84
2022/08/21 05:26:53;;;;;;;14.25;5.15;;;14.50;99.90;;;;;;6059304;23;20097;-83
2022/08/21 05:29:19;;;;;;;17.70;5.45;;;14.50;99.90;;;;;;6034674;23;20444;-84
2022/08/21 05:31:48;;;;;;;10.43;5.13;;;14.60;99.90;;;;;;6059265;23;20018;-84
2022/08/21 05:34:18;;;;;;;14.35;5.00;;;14.60;99.90;;;;;;6059056;23;20018;-84
2022/08/21 05:36:44;;;;;;;10.88;4.93;;;14.70;99.90;;;;;;6035023;23;20046;-84
2022/08/21 05:39:10;;;;;;;17.33;5.57;;;14.70;99.90;;;;;;6059166;23;20031;-84
2022/08/21 05:41:36;;;;;;;10.65;5.07;;;14.80;99.90;;;;;;6058501;23;20026;-83
2022/08/21 05:44:02;;;;;;;13.98;4.85;;;14.80;99.90;;;;;;6059347;23;20026;-84
2022/08/21 05:46:28;;;;;;;14.55;5.32;;;14.90;99.90;;;;;;6058396;23;20098;-84
2022/08/21 05:48:53;;;;;;;13.10;5.13;;;15.00;99.90;;;;;;6058849;23;20054;-83
2022/08/21 05:51:19;;;;;;;12.60;4.70;;;15.00;99.90;;;;;;6034640;23;20440;-83
2022/08/21 05:53:45;;;;;;;16.48;5.32;;;15.30;99.90;;;;;;6060299;23;20034;-84
2022/08/21 05:56:14;;;;;;;13.90;5.47;;;15.10;99.90;;;;;;6060190;23;20055;-84
2022/08/21 05:58:44;;;;;;;12.23;4.95;;;15.20;99.90;;;;;;6036788;23;20026;-84
2022/08/21 06:01:10;;;;;;;14.90;4.95;;;15.40;99.90;;;;;;6061375;23;20062;-85
2022/08/21 06:03:39;;;;;;;16.63;5.35;;;15.40;99.90;;;;;;6060068;23;20321;-84
2022/08/21 06:06:15;;;;;;;11.45;4.70;;;15.50;99.90;;;;;;6038388;23;20023;-86
2022/08/21 06:08:41;;;;;;;12.70;5.00;;;15.50;99.90;;;;;;6035209;23;20054;-85
2022/08/21 06:11:08;;;;;;;15.55;5.45;;;15.60;99.90;;;;;;6036172;23;20023;-86
2022/08/21 06:13:35;;;;;;;15.85;4.80;;;15.70;99.90;;;;;;6036606;23;20022;-84
2022/08/21 06:16:06;;;;;;;14.35;4.53;;;15.80;99.90;;;;;;6062437;23;20664;-85
2022/08/21 06:18:32;;;;;;;16.70;4.40;;;15.90;99.90;;;;;;6037001;23;20035;-85
2022/08/21 06:20:58;;;;;;;14.10;4.72;;;16.00;99.90;;;;;;6038403;23;20025;-86
2022/08/21 06:23:24;;;;;;;13.05;4.82;;;16.10;99.90;;;;;;6037275;23;20023;-85
2022/08/21 06:25:50;;;;;;;14.00;4.45;;;16.20;99.90;;;;;;6061904;23;20181;-86
2022/08/21 06:28:15;;;;;;;15.70;4.45;;;16.30;99.90;;;;;;6037713;23;20369;-86
2022/08/21 06:30:53;;;;;;;14.77;3.97;;;16.40;99.90;;;;;;6038192;23;20034;-86
2022/08/21 06:33:19;;;;;;;12.68;4.50;;;16.50;99.90;;;;;;6037823;23;20101;-87
2022/08/21 06:35:45;;;;;;;13.48;3.90;;;16.60;99.90;;;;;;6038907;23;20058;-86
2022/08/21 06:38:11;;;;;;;11.05;3.78;;;16.80;99.90;;;;;;6037869;23;20040;-87
2022/08/21 06:40:37;;;;;;;11.95;3.97;;;16.80;99.90;;;;;;6038781;23;20436;-87
2022/08/21 06:43:12;;;;;;;13.38;4.30;;;17.00;99.90;;;;;;6039159;23;20042;-86
2022/08/21 06:45:38;;;;;;;16.45;3.90;;;17.10;99.90;;;;;;6061963;23;20022;-87
2022/08/21 06:48:04;;;;;;;18.67;4.47;;;17.20;99.90;;;;;;6039041;23;20069;-86
2022/08/21 06:50:30;;;;;;;11.55;3.70;;;17.30;99.90;;;;;;6062984;23;20460;-87
2022/08/21 06:53:04;;;;;;;17.02;4.00;;;17.30;99.90;;;;;;6038766;23;20015;-87
2022/08/21 06:55:31;;;;;;;18.73;3.28;;;17.50;99.90;;;;;;6039265;23;20467;-86
2022/08/21 06:57:57;;;;;;;14.38;3.45;;;17.50;99.90;;;;;;6062065;23;20023;-88
2022/08/21 07:00:23;;;;;;;8.63;2.90;;;17.40;99.90;;;;;;6037929;23;20054;-87
2022/08/21 07:02:49;;;;;;;10.98;3.03;;;17.70;99.90;;;;;;6039378;23;20023;-86
2022/08/21 07:05:18;;;;;;;16.08;3.38;;;17.80;99.90;;;;;;6037654;23;20018;-87
2022/08/21 07:07:50;;;;;;;13.40;3.22;;;17.90;99.90;;;;;;6039239;23;20054;-87
2022/08/21 07:10:16;;;;;;;11.32;2.67;;;18.00;99.90;;;;;;6038270;23;20448;-87
2022/08/21 07:12:42;;;;;;;13.57;3.08;;;18.10;99.90;;;;;;6039346;23;20033;-87
2022/08/21 07:15:08;;;;;;;10.00;2.83;;;18.10;99.90;;;;;;6038204;23;20015;-87
2022/08/21 07:17:34;;;;;;;9.38;2.90;;;18.20;99.90;;;;;;6062896;23;20054;-88
2022/08/21 07:20:09;;;;;;;9.48;2.53;;;18.30;99.90;;;;;;6039895;23;20038;-88
2022/08/21 07:22:38;;;;;;;10.88;2.60;;;18.30;99.90;;;;;;6039887;23;20339;-88
2022/08/21 07:25:06;;;;;;;13.32;2.78;;;18.40;99.90;;;;;;6036940;23;20033;-86
2022/08/21 07:27:49;;;;;;;15.70;3.05;;;18.50;99.90;;;;;;6037479;23;20018;-86
2022/08/21 07:30:15;;;;;;;18.48;2.42;;;18.60;99.90;;;;;;6037890;23;20022;-86
2022/08/21 07:32:41;;;;;;;15.88;3.42;;;18.70;99.90;;;;;;6036952;23;20349;-86
2022/08/21 07:35:07;;;;;;;13.27;2.25;;;18.70;99.90;;;;;;6037370;23;20031;-85
2022/08/21 07:37:35;;;;;;;12.07;2.15;;;18.90;99.90;;;;;;6038063;23;20078;-87
2022/08/21 07:40:01;;;;;;;15.63;2.58;;;18.80;99.90;;;;;;6037402;23;20053;-86
2022/08/21 07:42:26;;;;;;;14.52;2.35;;;19.00;99.90;;;;;;6035135;23;20026;-86
2022/08/21 07:44:54;;;;;;;18.30;2.33;;;19.10;99.90;;;;;;6036493;23;20023;-84
2022/08/21 07:47:20;;;;;;;16.95;2.03;;;19.20;99.90;;;;;;6059227;23;20019;-86
2022/08/21 07:49:46;;;;;;;15.35;2.15;;;19.20;99.90;;;;;;6035702;23;20158;-86
2022/08/21 07:52:12;;;;;;;26.13;2.05;;;19.30;99.90;;;;;;6034756;23;20030;-86
2022/08/21 07:54:37;;;;;;;18.55;1.85;;;19.40;99.90;;;;;;6060445;23;20019;-86
2022/08/21 07:57:06;;;;;;;13.95;2.35;;;19.40;99.90;;;;;;6035241;23;20097;-86
2022/08/21 07:59:32;;;;;;;9.40;1.70;;;19.50;99.90;;;;;;6036111;23;20046;-86
2022/08/21 08:01:58;;;;;;;12.30;2.47;;;19.60;99.90;;;;;;6059643;23;20413;-86
2022/08/21 08:04:24;;;;;;;13.88;2.92;;;19.60;99.90;;;;;;6036422;23;20019;-88
2022/08/21 08:06:50;;;;;;;10.07;1.55;;;19.70;99.90;;;;;;6037678;23;20019;-86
2022/08/21 08:09:16;;;;;;;9.88;1.70;;;19.70;99.90;;;;;;6036753;23;20321;-85
2022/08/21 08:11:44;;;;;;;14.15;1.98;;;19.80;99.90;;;;;;6061538;23;20176;-87
2022/08/21 08:14:10;;;;;;;10.82;1.85;;;19.90;99.90;;;;;;6038025;23;20038;-87
2022/08/21 08:16:36;;;;;;;10.20;2.00;;;19.90;99.90;;;;;;6038151;23;20041;-86
2022/08/21 08:19:05;;;;;;;14.77;2.08;;;20.00;99.90;;;;;;6061448;23;20389;-87
2022/08/21 08:21:33;;;;;;;10.15;1.85;;;20.10;99.90;;;;;;6038502;23;20034;-86
2022/08/21 08:24:01;;;;;;;9.90;1.83;;;20.20;99.90;;;;;;6037831;23;20019;-86
2022/08/21 08:26:36;;;;;;;9.65;2.25;;;20.30;99.90;;;;;;6037400;23;20027;-87
2022/08/21 08:29:01;;;;;;;12.60;1.88;;;20.30;99.90;;;;;;6038211;23;20019;-87
2022/08/21 08:31:27;;;;;;;9.63;1.58;;;20.40;99.90;;;;;;6037695;23;20485;-86
2022/08/21 08:33:53;;;;;;;15.55;2.30;;;20.40;99.90;;;;;;6061350;23;20344;-86
2022/08/21 08:36:33;;;;;;;13.00;2.33;;;20.50;99.90;;;;;;6038090;23;20072;-87
2022/08/21 08:39:00;;;;;;;9.25;1.65;;;20.60;99.90;;;;;;6037818;23;20023;-86
2022/08/21 08:41:26;;;;;;;12.32;2.13;;;20.70;99.90;;;;;;6037259;23;20094;-85
2022/08/21 08:44:02;;;;;;;8.95;1.88;;;20.70;99.90;;;;;;6060253;23;20468;-85
2022/08/21 08:46:42;;;;;;;7.57;1.70;;;20.80;99.90;;;;;;6036223;23;20015;-86
2022/08/21 08:49:18;;;;;;;11.05;2.20;;;20.90;99.90;;;;;;6060641;23;20015;-88
2022/08/21 08:51:54;;;;;;;7.47;2.13;;;20.90;99.90;;;;;;6060267;23;20479;-88
2022/08/21 08:54:49;;;;;;;12.45;2.53;;;21.00;99.90;;;;;;6036833;23;20452;-89
2022/08/21 08:57:17;;;;;;;10.88;1.73;;;21.10;99.90;;;;;;6040886;23;20033;-88
2022/08/21 09:03:03;;;;;;;12.30;2.22;;;21.20;99.90;;;;;;6034376;23;20364;-86
2022/08/21 09:06:02;;;;;;;11.10;2.08;;;21.30;99.90;;;;;;6065469;23;20026;-84
2022/08/21 09:09:15;;;;;;;;;;;;;;;;;;;;;
2022/08/21 09:12:16;;;;;;;36.85;7.47;;;21.50;99.90;;;;;;6066522;23;20030;-86
2022/08/21 09:15:06;;;;;;;13.93;3.17;;;21.60;99.90;;;;;;6043145;23;20077;-87
2022/08/21 09:18:07;;;;;;;13.88;2.53;;;21.70;99.90;;;;;;6042684;23;20474;-86
2022/08/21 09:21:09;;;;;;;;;;;;;;;;;;;;;
2022/08/21 09:23:59;;;;;;;11.60;2.35;;;21.80;99.90;;;;;;6059181;23;20022;-87
2022/08/21 09:27:09;;;;;;;14.82;2.63;;;22.00;99.90;;;;;;6042776;23;20060;-86
2022/08/21 09:29:50;;;;;;;21.88;2.78;;;22.10;99.90;;;;;;6044667;23;20018;-87
2022/08/21 09:32:42;;;;;;;13.65;2.40;;;22.10;99.90;;;;;;6069081;23;20026;-86
2022/08/21 09:35:24;;;;;;;9.18;2.33;;;22.20;99.90;;;;;;6047638;23;20671;-87
2022/08/21 09:41:13;;;;;;;;;;;;;;;;;;;;;
2022/08/21 09:43:53;;;;;;;14.30;2.80;;;22.40;99.90;;;;;;6067926;23;20025;-87
2022/08/21 09:46:25;;;;;;;12.73;2.47;;;22.40;99.90;;;;;;6041857;23;20022;-86
2022/08/21 09:49:15;;;;;;;11.80;2.17;;;22.50;99.90;;;;;;6044186;23;20018;-87
2022/08/21 09:51:51;;;;;;;20.13;2.53;;;22.60;99.90;;;;;;6067842;23;20270;-85
2022/08/21 09:54:24;;;;;;;15.05;2.65;;;22.60;99.90;;;;;;6044028;23;20022;-86
2022/08/21 09:57:46;;;;;;;12.20;2.83;;;22.70;99.90;;;;;;6043597;23;20670;-86
2022/08/21 10:00:29;;;;;;;11.13;2.00;;;22.80;99.90;;;;;;6025076;23;20065;-86
2022/08/21 10:03:11;;;;;;;12.60;2.08;;;22.80;99.90;;;;;;6039592;23;20025;-87
2022/08/21 10:05:38;;;;;;;15.80;2.63;;;22.60;99.90;;;;;;6039036;23;20023;-87
2022/08/21 10:08:05;;;;;;;13.50;2.70;;;22.60;99.90;;;;;;6038622;23;20019;-87
2022/08/21 10:10:37;;;;;;;12.80;2.30;;;22.60;99.90;;;;;;6039379;23;20106;-87
2022/08/21 10:13:11;;;;;;;12.45;2.42;;;22.50;99.90;;;;;;6039515;23;20046;-87
2022/08/21 10:15:49;;;;;;;12.10;2.00;;;22.60;99.90;;;;;;6039003;23;20086;-86
2022/08/21 10:18:38;;;;;;;14.10;2.35;;;22.70;99.90;;;;;;6039440;23;20018;-86
2022/08/21 10:21:25;;;;;;;14.98;2.20;;;22.80;99.90;;;;;;6037588;23;20332;-87
2022/08/21 10:24:16;;;;;;;11.00;1.90;;;22.90;99.90;;;;;;6039379;23;20023;-86
2022/08/21 10:27:15;;;;;;;10.18;2.10;;;23.10;99.90;;;;;;6038613;23;20025;-85
2022/08/21 10:29:52;;;;;;;9.90;2.00;;;23.30;99.90;;;;;;6061241;23;20030;-85
2022/08/21 10:32:43;;;;;;;9.02;2.05;;;23.40;99.90;;;;;;6060109;23;20070;-84
2022/08/21 10:35:18;;;;;;;11.02;2.13;;;23.60;99.90;;;;;;6061595;23;20389;-85
2022/08/21 10:38:08;;;;;;;10.95;2.50;;;23.70;99.90;;;;;;6036736;23;20019;-85
2022/08/21 10:41:03;;;;;;;7.80;1.98;;;23.80;99.90;;;;;;6037176;23;20754;-85
2022/08/21 10:43:52;;;;;;;17.23;2.47;;;23.80;99.90;;;;;;6037949;23;20109;-87
2022/08/21 10:46:44;;;;;;;12.05;2.33;;;23.70;99.90;;;;;;6038487;23;20023;-87
2022/08/21 10:49:19;;;;;;;14.68;2.40;;;23.40;99.90;;;;;;6038742;23;20444;-86
2022/08/21 10:52:08;;;;;;;14.10;2.50;;;23.20;99.90;;;;;;6037641;23;20136;-84
2022/08/21 10:55:04;;;;;;;6.43;1.48;;;23.00;99.90;;;;;;6038104;23;20074;-87
2022/08/21 10:58:09;;;;;;;14.52;2.15;;;22.70;99.90;;;;;;6064533;23;20455;-93
2022/08/21 11:01:23;;;;;;;6.50;1.70;;;22.50;99.90;;;;;;5989996;23;20089;-86
2022/08/21 11:03:54;;;;;;;10.82;2.13;;;22.40;99.90;;;;;;6042550;23;20436;-86
2022/08/21 11:06:29;;;;;;;6.97;1.58;;;22.00;99.90;;;;;;6042795;23;20846;-86
2022/08/21 11:09:03;;;;;;;9.50;1.50;;;22.00;99.90;;;;;;6042050;23;20319;-84
2022/08/21 11:11:35;;;;;;;8.98;1.52;;;22.00;99.90;;;;;;6040153;23;20033;-84
2022/08/21 11:14:08;;;;;;;8.48;1.90;;;22.00;99.90;;;;;;6064500;23;20037;-85
2022/08/21 11:16:51;;;;;;;13.50;1.92;;;22.00;99.90;;;;;;6040892;23;20325;-85
2022/08/21 11:19:38;;;;;;;9.85;1.85;;;22.00;99.90;;;;;;6064432;23;20032;-85
2022/08/21 11:22:14;;;;;;;11.93;1.92;;;22.00;99.90;;;;;;6041667;23;20023;-85
2022/08/21 11:24:51;;;;;;;9.73;1.80;;;22.10;99.90;;;;;;6065312;23;20058;-85
2022/08/21 11:27:53;;;;;;;10.20;1.98;;;22.20;99.90;;;;;;6039148;23;20399;-85
2022/08/21 11:30:20;;;;;;;7.20;1.67;;;22.10;99.90;;;;;;6063990;23;20053;-84
2022/08/21 11:32:57;;;;;;;10.25;2.05;;;22.00;99.90;;;;;;6041269;23;20416;-85
2022/08/21 11:35:33;;;;;;;11.00;2.13;;;21.90;99.90;;;;;;6063200;23;20026;-84
2022/08/21 11:38:18;;;;;;;11.55;1.77;;;22.00;99.90;;;;;;6040946;23;20022;-85
2022/08/21 11:40:48;;;;;;;15.00;2.42;;;22.20;99.90;;;;;;6040792;23;20080;-86
2022/08/21 11:43:35;;;;;;;22.92;2.75;;;22.40;99.90;;;;;;6064557;23;20089;-85
2022/08/21 11:46:19;;;;;;;12.00;2.22;;;22.40;99.90;;;;;;6065597;23;20026;-85
2022/08/21 11:49:00;;;;;;;14.32;2.10;;;22.40;99.90;;;;;;6041146;23;20116;-85
2022/08/21 11:51:37;;;;;;;14.98;2.53;;;22.50;99.90;;;;;;6041468;23;20093;-84
2022/08/21 11:54:26;;;;;;;12.05;2.17;;;22.60;99.90;;;;;;6065384;23;20486;-84
2022/08/21 11:57:14;;;;;;;12.60;1.85;;;23.00;99.90;;;;;;6041390;23;20026;-85
2022/08/21 11:59:46;;;;;;;8.95;2.25;;;23.30;99.90;;;;;;6031490;23;20437;-85
2022/08/21 12:02:14;;;;;;;;;;;23.80;99.90;;;;;;6007002;23;20126;-85
2022/08/21 12:04:51;;;;;;;9.38;1.70;;;23.90;99.90;;;;;;6031705;23;19953;-85
2022/08/21 12:07:31;;;;;;;9.75;3.10;;;24.00;99.90;;;;;;6007835;23;20015;-85
2022/08/21 12:09:58;;;;;;;8.55;1.92;;;24.10;99.90;;;;;;6007986;23;20027;-85
2022/08/21 12:12:29;;;;;;;11.02;1.77;;;24.10;99.90;;;;;;6007622;23;20035;-86
2022/08/21 12:15:20;;;;;;;11.38;2.13;;;24.00;99.90;;;;;;6008518;23;20019;-86
2022/08/21 12:17:54;;;;;;;9.52;1.77;;;24.10;99.90;;;;;;6031678;23;20027;-85
2022/08/21 12:20:20;;;;;;;12.95;2.22;;;24.30;99.90;;;;;;6007082;23;20483;-85
2022/08/21 12:22:55;;;;;;;10.00;2.13;;;24.40;99.90;;;;;;6031250;23;20027;-86
2022/08/21 12:25:22;;;;;;;12.48;2.63;;;24.40;99.90;;;;;;6031401;23;20027;-86
2022/08/21 12:27:51;;;;;;;10.68;2.05;;;24.30;99.90;;;;;;6007983;23;20368;-85
2022/08/21 12:30:36;;;;;;;14.60;2.28;;;24.20;99.90;;;;;;6006320;23;20021;-85
2022/08/21 12:33:17;;;;;;;11.23;2.22;;;24.20;99.90;;;;;;6008131;23;20439;-86
2022/08/21 12:35:44;;;;;;;10.20;1.95;;;24.30;99.90;;;;;;6007482;23;20019;-86
2022/08/21 12:38:27;;;;;;;10.05;1.55;;;24.40;99.90;;;;;;6007098;23;20054;-86
2022/08/21 12:40:58;;;;;;;11.80;1.52;;;24.60;99.90;;;;;;6032159;23;20338;-86
2022/08/21 12:43:39;;;;;;;13.88;1.60;;;24.60;99.90;;;;;;6006820;23;20016;-85
2022/08/21 12:46:05;;;;;;;9.45;1.63;;;24.70;99.90;;;;;;6006771;23;20027;-86
2022/08/21 12:48:43;;;;;;;7.97;1.52;;;24.80;99.90;;;;;;6031963;23;20019;-86
2022/08/21 12:51:21;;;;;;;12.98;2.00;;;24.90;99.90;;;;;;6007094;23;20026;-86
2022/08/21 12:53:50;;;;;;;8.02;1.60;;;24.90;99.90;;;;;;6008251;23;20015;-85
2022/08/21 12:56:19;;;;;;;9.88;1.63;;;24.90;99.90;;;;;;6007833;23;20023;-86
2022/08/21 12:58:48;;;;;;;13.15;1.70;;;24.90;99.90;;;;;;6023781;23;20428;-85
2022/08/21 13:01:25;;;;;;;10.10;1.75;;;24.80;99.90;;;;;;6059557;23;20034;-85
2022/08/21 13:03:55;;;;;;;14.25;1.83;;;24.80;99.90;;;;;;6036784;23;20022;-85
2022/08/21 13:06:23;;;;;;;6.60;1.25;;;24.90;99.90;;;;;;6060310;23;20031;-85
2022/08/21 13:08:59;;;;;;;12.32;2.08;;;25.00;99.90;;;;;;6038442;23;20019;-85
2022/08/21 13:11:32;;;;;;;13.20;2.00;;;25.10;99.90;;;;;;6037401;23;20463;-85
2022/08/21 13:14:06;;;;;;;5.07;1.20;;;25.10;99.90;;;;;;6060534;23;20023;-86
2022/08/21 13:16:32;;;;;;;6.57;1.63;;;25.10;99.90;;;;;;6061293;23;20042;-85
2022/08/21 13:19:13;;;;;;;9.70;1.48;;;24.90;99.90;;;;;;6037404;23;20027;-86
2022/08/21 13:21:43;;;;;;;6.75;1.63;;;24.80;99.90;;;;;;6062097;23;20045;-86
2022/08/21 13:24:23;;;;;;;8.38;1.50;;;24.60;99.90;;;;;;6037727;23;20027;-85
2022/08/21 13:26:56;;;;;;;8.65;1.55;;;24.40;99.90;;;;;;6061345;23;20019;-86
2022/08/21 13:29:29;;;;;;;6.75;1.00;;;24.20;99.90;;;;;;6037548;23;20111;-85
2022/08/21 13:31:57;;;;;;;7.05;1.20;;;24.00;99.90;;;;;;6060913;23;20034;-86
2022/08/21 13:34:37;;;;;;;7.65;1.25;;;23.90;99.90;;;;;;6037485;23;20027;-86
2022/08/21 13:37:07;;;;;;;7.65;1.60;;;23.90;99.90;;;;;;6038294;23;20054;-86
2022/08/21 13:39:49;;;;;;;5.20;1.30;;;23.70;99.90;;;;;;6061537;23;20090;-86
2022/08/21 13:42:22;;;;;;;5.35;1.10;;;23.60;99.90;;;;;;6036666;23;20439;-86
2022/08/21 13:44:53;;;;;;;9.10;1.70;;;23.60;99.90;;;;;;6061913;23;20027;-86
2022/08/21 13:47:19;;;;;;;8.77;1.33;;;23.70;99.90;;;;;;6035815;23;20058;-85
2022/08/21 13:49:48;;;;;;;7.30;1.50;;;23.90;99.90;;;;;;6038781;23;20050;-85
2022/08/21 13:52:20;;;;;;;5.68;1.40;;;24.10;99.90;;;;;;6061139;23;20022;-86
2022/08/21 13:54:55;;;;;;;6.30;1.25;;;24.00;99.90;;;;;;6037252;23;20062;-86
2022/08/21 13:57:38;;;;;;;7.90;1.42;;;24.00;99.90;;;;;;6036290;23;20021;-85
2022/08/21 14:00:11;;;;;;;;;;;23.90;99.90;;;;;;6066927;23;20081;-85
2022/08/21 14:02:47;;;;;;;7.32;1.00;;;24.00;99.90;;;;;;6065022;23;19917;-85
2022/08/21 14:05:19;;;;;;;11.43;1.75;;;24.00;99.90;;;;;;6041369;23;20133;-85
2022/08/21 14:07:45;;;;;;;6.13;1.23;;;24.00;99.90;;;;;;6043021;23;20025;-86
2022/08/21 14:10:23;;;;;;;10.27;1.38;;;23.90;99.90;;;;;;6040917;23;20018;-86
2022/08/21 14:12:52;;;;;;;11.63;1.75;;;23.90;99.90;;;;;;6042046;23;20050;-86
2022/08/21 14:15:23;;;;;;;4.93;1.33;;;23.80;99.90;;;;;;6064507;23;20026;-86
2022/08/21 14:17:49;;;;;;;7.88;1.58;;;23.80;99.90;;;;;;6041935;23;20023;-86
2022/08/21 14:20:35;;;;;;;6.80;1.13;;;23.80;99.90;;;;;;6065925;23;20011;-84
2022/08/21 14:23:01;;;;;;;5.78;1.10;;;23.80;99.90;;;;;;6065575;23;20089;-87
2022/08/21 14:25:43;;;;;;;7.03;1.15;;;23.70;99.90;;;;;;6040844;23;20026;-85
2022/08/21 14:28:31;;;;;;;6.20;1.20;;;23.60;99.90;;;;;;6065029;23;20363;-85
2022/08/21 14:31:10;;;;;;;9.55;1.50;;;23.50;99.90;;;;;;6040973;23;20026;-85
2022/08/21 14:33:35;;;;;;;9.18;1.40;;;23.40;99.90;;;;;;6065378;23;20022;-85
2022/08/21 14:36:02;;;;;;;8.18;1.42;;;23.30;99.90;;;;;;6065339;23;20112;-85
2022/08/21 14:38:28;;;;;;;6.72;1.40;;;23.20;99.90;;;;;;6065451;23;20033;-85